sensor_id;sensor_type;location;lat;lon;timestamp;pressure;altitude;pressure_sealevel;temperature;humidity
59194;BME280;44967;48.598;15.650;2024-02-21T00:02:21;99090.09;;;7.01;66.38
59194;BME280;44967;48.598;15.650;2024-02-21T00:04:46;99100.56;;;7.08;67.06
59194;BME280;44967;48.598;15.650;2024-02-21T00:07:12;99087.47;;;7.01;66.51
59194;BME280;44967;48.598;15.650;2024-02-21T00:09:38;99083.97;;;7.02;66.56
59194;BME280;44967;48.598;15.650;2024-02-21T00:12:04;99090.09;;;6.98;66.24
59194;BME280;44967;48.598;15.650;2024-02-21T00:14:30;99090.06;;;6.99;67.68
59194;BME280;44967;48.598;15.650;2024-02-21T00:16:56;99084.81;;;7.08;65.91
59194;BME280;44967;48.598;15.650;2024-02-21T00:19:22;99087.44;;;7.05;66.44
59194;BME280;44967;48.598;15.650;2024-02-21T00:21:47;99085.69;;;7.00;66.96
59194;BME280;44967;48.598;15.650;2024-02-21T00:24:13;99085.75;;;6.91;66.88
59194;BME280;44967;48.598;15.650;2024-02-21T00:26:39;99080.47;;;6.95;67.42
59194;BME280;44967;48.598;15.650;2024-02-21T00:29:04;99084.84;;;6.96;67.27
59194;BME280;44967;48.598;15.650;2024-02-21T00:31:31;99090.97;;;6.97;66.56
59194;BME280;44967;48.598;15.650;2024-02-21T00:33:56;99083.09;;;7.01;66.38
59194;BME280;44967;48.598;15.650;2024-02-21T00:36:23;99075.22;;;6.97;66.46
59194;BME280;44967;48.598;15.650;2024-02-21T00:38:49;99078.72;;;6.97;67.01
59194;BME280;44967;48.598;15.650;2024-02-21T00:41:15;99074.31;;;7.01;66.06
59194;BME280;44967;48.598;15.650;2024-02-21T00:43:41;99082.19;;;7.10;65.68
59194;BME280;44967;48.598;15.650;2024-02-21T00:46:07;99074.28;;;7.10;66.22
59194;BME280;44967;48.598;15.650;2024-02-21T00:48:33;99076.94;;;7.07;65.68
59194;BME280;44967;48.598;15.650;2024-02-21T00:50:59;99069.91;;;7.09;66.51
59194;BME280;44967;48.598;15.650;2024-02-21T00:53:25;99069.06;;;7.05;66.90
59194;BME280;44967;48.598;15.650;2024-02-21T00:55:50;99055.00;;;7.08;66.02
59194;BME280;44967;48.598;15.650;2024-02-21T00:58:16;99059.44;;;7.00;66.04
59194;BME280;44967;48.598;15.650;2024-02-21T01:00:42;99060.31;;;6.96;67.30
59194;BME280;44967;48.598;15.650;2024-02-21T01:03:07;99055.94;;;7.01;66.27
59194;BME280;44967;48.598;15.650;2024-02-21T01:05:33;99050.72;;;6.95;66.51
59194;BME280;44967;48.598;15.650;2024-02-21T01:07:59;99044.59;;;6.88;66.44
59194;BME280;44967;48.598;15.650;2024-02-21T01:10:25;99045.47;;;6.86;67.24
59194;BME280;44967;48.598;15.650;2024-02-21T01:12:50;99048.97;;;6.88;67.12
59194;BME280;44967;48.598;15.650;2024-02-21T01:15:16;99040.25;;;6.83;66.66
59194;BME280;44967;48.598;15.650;2024-02-21T01:17:42;99038.47;;;6.85;66.80
59194;BME280;44967;48.598;15.650;2024-02-21T01:20:08;99034.09;;;6.90;67.28
59194;BME280;44967;48.598;15.650;2024-02-21T01:22:35;99038.44;;;6.88;66.88
59194;BME280;44967;48.598;15.650;2024-02-21T01:25:01;99027.94;;;6.88;66.16
59194;BME280;44967;48.598;15.650;2024-02-21T01:27:26;99029.75;;;6.77;67.46
59194;BME280;44967;48.598;15.650;2024-02-21T01:29:53;99023.63;;;6.73;67.55
59194;BME280;44967;48.598;15.650;2024-02-21T01:32:19;99028.00;;;6.79;67.40
59194;BME280;44967;48.598;15.650;2024-02-21T01:34:45;99024.53;;;6.71;67.52
59194;BME280;44967;48.598;15.650;2024-02-21T01:37:10;99015.75;;;6.75;67.16
59194;BME280;44967;48.598;15.650;2024-02-21T01:39:37;99020.13;;;6.73;68.60
59194;BME280;44967;48.598;15.650;2024-02-21T01:42:03;99018.38;;;6.75;67.52
59194;BME280;44967;48.598;15.650;2024-02-21T01:44:28;99019.25;;;6.74;67.04
59194;BME280;44967;48.598;15.650;2024-02-21T01:46:54;99021.06;;;6.62;67.65
59194;BME280;44967;48.598;15.650;2024-02-21T01:49:20;99020.19;;;6.59;68.22
59194;BME280;44967;48.598;15.650;2024-02-21T01:51:47;99017.56;;;6.54;68.33
59194;BME280;44967;48.598;15.650;2024-02-21T01:54:17;99015.81;;;6.55;67.64
59194;BME280;44967;48.598;15.650;2024-02-21T01:56:44;99008.78;;;6.60;66.83
59194;BME280;44967;48.598;15.650;2024-02-21T01:59:12;98998.31;;;6.63;67.74
59194;BME280;44967;48.598;15.650;2024-02-21T02:01:39;98999.16;;;6.65;68.01
59194;BME280;44967;48.598;15.650;2024-02-21T02:04:06;98998.28;;;6.64;68.21
59194;BME280;44967;48.598;15.650;2024-02-21T02:06:31;99000.94;;;6.57;68.21
59194;BME280;44967;48.598;15.650;2024-02-21T02:08:57;98990.47;;;6.51;68.42
59194;BME280;44967;48.598;15.650;2024-02-21T02:11:24;98995.66;;;6.60;68.44
59194;BME280;44967;48.598;15.650;2024-02-21T02:13:50;98975.56;;;6.54;68.04
59194;BME280;44967;48.598;15.650;2024-02-21T02:16:15;98983.47;;;6.45;68.19
59194;BME280;44967;48.598;15.650;2024-02-21T02:18:41;98986.94;;;6.58;67.49
59194;BME280;44967;48.598;15.650;2024-02-21T02:21:11;98983.47;;;6.51;67.46
59194;BME280;44967;48.598;15.650;2024-02-21T02:23:39;98978.16;;;6.62;66.97
59194;BME280;44967;48.598;15.650;2024-02-21T02:26:06;98982.56;;;6.52;67.64
59194;BME280;44967;48.598;15.650;2024-02-21T02:28:33;98975.56;;;6.50;68.15
59194;BME280;44967;48.598;15.650;2024-02-21T02:30:59;98978.22;;;6.42;68.51
59194;BME280;44967;48.598;15.650;2024-02-21T02:33:24;98984.34;;;6.50;68.54
59194;BME280;44967;48.598;15.650;2024-02-21T02:35:50;98978.22;;;6.50;68.07
59194;BME280;44967;48.598;15.650;2024-02-21T02:38:16;98981.72;;;6.41;68.99
59194;BME280;44967;48.598;15.650;2024-02-21T02:40:41;98966.88;;;6.43;68.38
59194;BME280;44967;48.598;15.650;2024-02-21T02:43:08;98969.47;;;6.45;69.29
59194;BME280;44967;48.598;15.650;2024-02-21T02:45:34;98965.94;;;6.55;67.50
59194;BME280;44967;48.598;15.650;2024-02-21T02:48:00;98961.59;;;6.51;67.54
59194;BME280;44967;48.598;15.650;2024-02-21T02:50:27;98959.81;;;6.48;67.87
59194;BME280;44967;48.598;15.650;2024-02-21T02:52:54;98961.56;;;6.55;68.30
59194;BME280;44967;48.598;15.650;2024-02-21T02:55:20;98952.78;;;6.56;67.11
59194;BME280;44967;48.598;15.650;2024-02-21T02:57:46;98953.69;;;6.58;67.75
59194;BME280;44967;48.598;15.650;2024-02-21T03:00:13;98951.06;;;6.54;67.49
59194;BME280;44967;48.598;15.650;2024-02-21T03:02:40;98945.81;;;6.49;68.85
59194;BME280;44967;48.598;15.650;2024-02-21T03:05:20;98948.47;;;6.46;68.14
59194;BME280;44967;48.598;15.650;2024-02-21T03:07:47;98946.72;;;6.47;67.91
59194;BME280;44967;48.598;15.650;2024-02-21T03:10:13;98944.09;;;6.45;67.90
59194;BME280;44967;48.598;15.650;2024-02-21T03:12:39;98946.72;;;6.51;68.08
59194;BME280;44967;48.598;15.650;2024-02-21T03:15:06;98946.69;;;6.48;67.66
59194;BME280;44967;48.598;15.650;2024-02-21T03:17:32;98944.09;;;6.45;68.38
59194;BME280;44967;48.598;15.650;2024-02-21T03:20:00;98939.72;;;6.47;67.51
59194;BME280;44967;48.598;15.650;2024-02-21T03:22:26;98944.94;;;6.50;67.83
59194;BME280;44967;48.598;15.650;2024-02-21T03:24:53;98947.59;;;6.44;68.40
59194;BME280;44967;48.598;15.650;2024-02-21T03:27:19;98944.09;;;6.36;68.18
59194;BME280;44967;48.598;15.650;2024-02-21T03:29:45;98936.25;;;6.35;69.00
59194;BME280;44967;48.598;15.650;2024-02-21T03:32:11;98940.59;;;6.42;68.36
59194;BME280;44967;48.598;15.650;2024-02-21T03:34:36;98936.25;;;6.44;68.52
59194;BME280;44967;48.598;15.650;2024-02-21T03:37:02;98939.72;;;6.44;67.89
59194;BME280;44967;48.598;15.650;2024-02-21T03:39:31;98933.63;;;6.33;68.24
59194;BME280;44967;48.598;15.650;2024-02-21T03:41:58;98929.31;;;6.23;68.60
59194;BME280;44967;48.598;15.650;2024-02-21T03:44:26;98934.56;;;6.20;68.71
59194;BME280;44967;48.598;15.650;2024-02-21T03:46:52;98931.03;;;6.32;68.51
59194;BME280;44967;48.598;15.650;2024-02-21T03:49:18;98937.13;;;6.32;68.43
59194;BME280;44967;48.598;15.650;2024-02-21T03:51:44;98937.97;;;6.42;67.77
59194;BME280;44967;48.598;15.650;2024-02-21T03:54:09;98937.13;;;6.32;68.29
59194;BME280;44967;48.598;15.650;2024-02-21T03:56:38;98937.13;;;6.35;68.41
59194;BME280;44967;48.598;15.650;2024-02-21T03:59:06;98934.56;;;6.23;68.65
59194;BME280;44967;48.598;15.650;2024-02-21T04:01:32;98936.31;;;6.20;68.35
59194;BME280;44967;48.598;15.650;2024-02-21T04:03:58;98924.03;;;6.22;68.94
59194;BME280;44967;48.598;15.650;2024-02-21T04:06:23;98930.19;;;6.22;69.23
59194;BME280;44967;48.598;15.650;2024-02-21T04:08:49;98926.69;;;6.20;69.89
59194;BME280;44967;48.598;15.650;2024-02-21T04:11:15;98924.06;;;6.20;69.42
59194;BME280;44967;48.598;15.650;2024-02-21T04:13:40;98919.59;;;6.40;68.73
59194;BME280;44967;48.598;15.650;2024-02-21T04:16:06;98917.88;;;6.33;67.83
59194;BME280;44967;48.598;15.650;2024-02-21T04:18:32;98914.34;;;6.40;68.95
59194;BME280;44967;48.598;15.650;2024-02-21T04:20:59;98912.59;;;6.41;68.53
59194;BME280;44967;48.598;15.650;2024-02-21T04:23:24;98912.63;;;6.36;68.87
59194;BME280;44967;48.598;15.650;2024-02-21T04:25:50;98912.63;;;6.38;68.57
59194;BME280;44967;48.598;15.650;2024-02-21T04:28:16;98912.63;;;6.33;69.50
59194;BME280;44967;48.598;15.650;2024-02-21T04:30:41;98903.91;;;6.30;69.62
59194;BME280;44967;48.598;15.650;2024-02-21T04:33:07;98907.38;;;6.33;69.37
59194;BME280;44967;48.598;15.650;2024-02-21T04:35:32;98896.88;;;6.35;69.49
59194;BME280;44967;48.598;15.650;2024-02-21T04:37:58;98893.41;;;6.30;69.60
59194;BME280;44967;48.598;15.650;2024-02-21T04:40:24;98889.00;;;6.33;70.00
59194;BME280;44967;48.598;15.650;2024-02-21T04:42:50;98880.28;;;6.30;69.77
59194;BME280;44967;48.598;15.650;2024-02-21T04:45:15;98884.66;;;6.35;69.27
59194;BME280;44967;48.598;15.650;2024-02-21T04:47:42;98882.06;;;6.28;69.63
59194;BME280;44967;48.598;15.650;2024-02-21T04:50:08;98883.75;;;6.35;70.15
59194;BME280;44967;48.598;15.650;2024-02-21T04:52:34;98888.16;;;6.31;69.94
59194;BME280;44967;48.598;15.650;2024-02-21T04:55:00;98883.78;;;6.29;70.28
59194;BME280;44967;48.598;15.650;2024-02-21T04:57:26;98896.03;;;6.25;70.92
59194;BME280;44967;48.598;15.650;2024-02-21T04:59:52;98894.34;;;6.15;71.05
59194;BME280;44967;48.598;15.650;2024-02-21T05:02:18;98889.97;;;6.14;70.51
59194;BME280;44967;48.598;15.650;2024-02-21T05:04:45;98893.44;;;6.19;71.38
59194;BME280;44967;48.598;15.650;2024-02-21T05:07:11;98894.34;;;6.12;70.90
59194;BME280;44967;48.598;15.650;2024-02-21T05:09:37;98894.38;;;6.06;71.33
59194;BME280;44967;48.598;15.650;2024-02-21T05:12:03;98888.25;;;6.07;71.60
59194;BME280;44967;48.598;15.650;2024-02-21T05:14:29;98889.97;;;6.11;71.13
59194;BME280;44967;48.598;15.650;2024-02-21T05:16:55;98891.75;;;6.06;70.78
59194;BME280;44967;48.598;15.650;2024-02-21T05:19:21;98892.63;;;6.03;72.41
59194;BME280;44967;48.598;15.650;2024-02-21T05:21:46;98886.53;;;6.00;72.09
59194;BME280;44967;48.598;15.650;2024-02-21T05:24:12;98886.53;;;5.94;72.06
59194;BME280;44967;48.598;15.650;2024-02-21T05:26:37;98881.28;;;5.80;72.77
59194;BME280;44967;48.598;15.650;2024-02-21T05:29:03;98888.31;;;5.63;73.31
59194;BME280;44967;48.598;15.650;2024-02-21T05:34:24;98887.44;;;5.47;74.73
59194;BME280;44967;48.598;15.650;2024-02-21T05:36:51;98888.31;;;5.46;74.00
59194;BME280;44967;48.598;15.650;2024-02-21T05:39:18;98885.69;;;5.55;74.43
59194;BME280;44967;48.598;15.650;2024-02-21T05:41:44;98880.44;;;5.54;74.50
59194;BME280;44967;48.598;15.650;2024-02-21T05:44:10;98881.34;;;5.44;74.66
59194;BME280;44967;48.598;15.650;2024-02-21T05:46:36;98880.47;;;5.37;74.63
59194;BME280;44967;48.598;15.650;2024-02-21T05:49:02;98883.97;;;5.41;75.05
59194;BME280;44967;48.598;15.650;2024-02-21T05:51:32;98887.44;;;5.43;74.96
59194;BME280;44967;48.598;15.650;2024-02-21T05:53:59;98883.09;;;5.40;75.43
59194;BME280;44967;48.598;15.650;2024-02-21T05:56:25;98884.84;;;5.29;75.28
59194;BME280;44967;48.598;15.650;2024-02-21T05:58:51;98895.28;;;5.41;75.53
59194;BME280;44967;48.598;15.650;2024-02-21T06:01:17;98885.72;;;5.45;75.42
59194;BME280;44967;48.598;15.650;2024-02-21T06:03:43;98882.19;;;5.50;75.09
59194;BME280;44967;48.598;15.650;2024-02-21T06:06:09;98879.59;;;5.56;74.91
59194;BME280;44967;48.598;15.650;2024-02-21T06:08:35;98874.31;;;5.53;75.15
59194;BME280;44967;48.598;15.650;2024-02-21T06:11:01;98876.09;;;5.53;75.29
59194;BME280;44967;48.598;15.650;2024-02-21T06:13:27;98872.59;;;5.55;75.16
59194;BME280;44967;48.598;15.650;2024-02-21T06:15:53;98862.97;;;5.57;75.38
59194;BME280;44967;48.598;15.650;2024-02-21T06:18:19;98859.47;;;5.63;75.54
59194;BME280;44967;48.598;15.650;2024-02-21T06:20:45;98858.59;;;5.61;74.97
59194;BME280;44967;48.598;15.650;2024-02-21T06:23:16;98862.97;;;5.51;75.60
59194;BME280;44967;48.598;15.650;2024-02-21T06:25:42;98862.09;;;5.58;75.01
59194;BME280;44967;48.598;15.650;2024-02-21T06:28:09;98868.22;;;5.63;75.14
59194;BME280;44967;48.598;15.650;2024-02-21T06:30:35;98868.19;;;5.66;75.65
59194;BME280;44967;48.598;15.650;2024-02-21T06:33:01;98866.41;;;5.73;74.85
59194;BME280;44967;48.598;15.650;2024-02-21T06:35:28;98858.56;;;5.81;74.57
59194;BME280;44967;48.598;15.650;2024-02-21T06:37:54;98864.66;;;5.81;75.07
59194;BME280;44967;48.598;15.650;2024-02-21T06:40:22;98863.78;;;5.85;75.35
59194;BME280;44967;48.598;15.650;2024-02-21T06:42:48;98865.53;;;5.85;75.04
59194;BME280;44967;48.598;15.650;2024-02-21T06:45:14;98868.19;;;5.86;74.92
59194;BME280;44967;48.598;15.650;2024-02-21T06:47:40;98859.44;;;5.87;75.42
59194;BME280;44967;48.598;15.650;2024-02-21T06:50:06;98869.91;;;5.99;74.83
59194;BME280;44967;48.598;15.650;2024-02-21T06:52:32;98870.72;;;6.09;74.29
59194;BME280;44967;48.598;15.650;2024-02-21T06:54:58;98875.94;;;6.16;74.14
59194;BME280;44967;48.598;15.650;2024-02-21T06:57:23;98877.66;;;6.25;73.86
59194;BME280;44967;48.598;15.650;2024-02-21T06:59:49;98878.50;;;6.33;73.59
59194;BME280;44967;48.598;15.650;2024-02-21T07:02:15;98881.09;;;6.42;73.74
59194;BME280;44967;48.598;15.650;2024-02-21T07:04:41;98873.19;;;6.51;72.77
59194;BME280;44967;48.598;15.650;2024-02-21T07:07:06;98873.16;;;6.56;73.06
59194;BME280;44967;48.598;15.650;2024-02-21T07:09:32;98868.72;;;6.66;71.66
59194;BME280;44967;48.598;15.650;2024-02-21T07:11:59;98869.56;;;6.74;71.11
59194;BME280;44967;48.598;15.650;2024-02-21T07:14:25;98870.41;;;6.77;71.34
59194;BME280;44967;48.598;15.650;2024-02-21T07:16:51;98864.22;;;6.86;70.32
59194;BME280;44967;48.598;15.650;2024-02-21T07:19:17;98872.97;;;6.91;69.66
59194;BME280;44967;48.598;15.650;2024-02-21T07:21:43;98870.28;;;6.98;68.91
59194;BME280;44967;48.598;15.650;2024-02-21T07:24:09;98865.06;;;6.91;70.66
59194;BME280;44967;48.598;15.650;2024-02-21T07:26:35;98871.97;;;7.07;69.12
59194;BME280;44967;48.598;15.650;2024-02-21T07:29:01;98863.88;;;7.33;67.43
59194;BME280;44967;48.598;15.650;2024-02-21T07:31:27;98860.56;;;7.11;68.21
59194;BME280;44967;48.598;15.650;2024-02-21T07:33:53;98864.03;;;7.15;68.11
59194;BME280;44967;48.598;15.650;2024-02-21T07:36:29;98865.84;;;7.06;68.23
59194;BME280;44967;48.598;15.650;2024-02-21T07:38:57;98858.00;;;7.00;67.77
59194;BME280;44967;48.598;15.650;2024-02-21T07:41:23;98845.69;;;7.07;67.88
59194;BME280;44967;48.598;15.650;2024-02-21T07:43:49;98853.44;;;7.21;67.93
59194;BME280;44967;48.598;15.650;2024-02-21T07:46:15;98846.50;;;7.12;67.70
59194;BME280;44967;48.598;15.650;2024-02-21T07:48:41;98850.00;;;7.14;67.53
59194;BME280;44967;48.598;15.650;2024-02-21T07:51:07;98838.69;;;7.06;68.14
59194;BME280;44967;48.598;15.650;2024-02-21T07:53:33;98842.16;;;7.11;67.57
59194;BME280;44967;48.598;15.650;2024-02-21T07:55:59;98842.25;;;6.99;68.75
59194;BME280;44967;48.598;15.650;2024-02-21T07:58:25;98835.25;;;6.98;68.35
59194;BME280;44967;48.598;15.650;2024-02-21T08:00:50;98827.25;;;7.13;68.43
59194;BME280;44967;48.598;15.650;2024-02-21T08:03:16;98821.16;;;7.06;68.23
59194;BME280;44967;48.598;15.650;2024-02-21T08:05:43;98814.88;;;7.24;68.11
59194;BME280;44967;48.598;15.650;2024-02-21T08:08:09;98807.03;;;7.21;68.50
59194;BME280;44967;48.598;15.650;2024-02-21T08:10:35;98814.00;;;7.25;67.97
59194;BME280;44967;48.598;15.650;2024-02-21T08:13:01;98814.00;;;7.25;68.54
59194;BME280;44967;48.598;15.650;2024-02-21T08:15:26;98810.38;;;7.35;67.90
59194;BME280;44967;48.598;15.650;2024-02-21T08:17:54;98811.31;;;7.30;68.11
59194;BME280;44967;48.598;15.650;2024-02-21T08:20:24;98805.13;;;7.35;67.62
59194;BME280;44967;48.598;15.650;2024-02-21T08:22:50;98820.75;;;7.53;67.22
59194;BME280;44967;48.598;15.650;2024-02-21T08:25:15;98813.66;;;7.58;66.98
59194;BME280;44967;48.598;15.650;2024-02-21T08:27:41;98811.91;;;7.61;66.84
59194;BME280;44967;48.598;15.650;2024-02-21T08:30:07;98814.41;;;7.74;66.26
59194;BME280;44967;48.598;15.650;2024-02-21T08:32:33;98815.09;;;7.88;67.29
59194;BME280;44967;48.598;15.650;2024-02-21T08:35:01;98813.06;;;8.12;66.53
59194;BME280;44967;48.598;15.650;2024-02-21T08:37:27;98805.69;;;8.41;65.62
59194;BME280;44967;48.598;15.650;2024-02-21T08:39:53;98804.00;;;8.37;64.79
59194;BME280;44967;48.598;15.650;2024-02-21T08:42:19;98802.03;;;8.49;63.91
59194;BME280;44967;48.598;15.650;2024-02-21T08:44:45;98795.94;;;8.47;63.87
59194;BME280;44967;48.598;15.650;2024-02-21T08:47:11;98805.38;;;8.64;64.04
59194;BME280;44967;48.598;15.650;2024-02-21T08:49:37;98804.44;;;8.68;64.23
59194;BME280;44967;48.598;15.650;2024-02-21T08:52:03;98799.22;;;8.62;63.65
59194;BME280;44967;48.598;15.650;2024-02-21T08:54:29;98801.88;;;8.62;63.73
59194;BME280;44967;48.598;15.650;2024-02-21T08:56:54;98795.59;;;8.72;63.79
59194;BME280;44967;48.598;15.650;2024-02-21T08:59:20;98795.28;;;8.91;63.34
59194;BME280;44967;48.598;15.650;2024-02-21T09:01:46;98791.75;;;8.92;63.13
59194;BME280;44967;48.598;15.650;2024-02-21T09:04:12;98784.69;;;8.94;62.86
59194;BME280;44967;48.598;15.650;2024-02-21T09:06:38;98789.03;;;8.97;62.04
59194;BME280;44967;48.598;15.650;2024-02-21T09:09:08;98789.94;;;8.94;61.93
59194;BME280;44967;48.598;15.650;2024-02-21T09:11:35;98783.81;;;8.94;62.43
59194;BME280;44967;48.598;15.650;2024-02-21T09:14:00;98783.66;;;9.05;61.97
59194;BME280;44967;48.598;15.650;2024-02-21T09:16:26;98776.50;;;9.11;62.62
59194;BME280;44967;48.598;15.650;2024-02-21T09:18:52;98773.00;;;9.09;62.23
59194;BME280;44967;48.598;15.650;2024-02-21T09:21:18;98768.72;;;9.04;61.44
59194;BME280;44967;48.598;15.650;2024-02-21T09:23:45;98762.25;;;9.21;61.92
59194;BME280;44967;48.598;15.650;2024-02-21T09:26:10;98769.22;;;9.25;61.16
59194;BME280;44967;48.598;15.650;2024-02-21T09:28:39;98774.47;;;9.25;61.38
59194;BME280;44967;48.598;15.650;2024-02-21T09:31:05;98772.53;;;9.36;61.34
59194;BME280;44967;48.598;15.650;2024-02-21T09:33:30;98776.84;;;9.40;61.16
59194;BME280;44967;48.598;15.650;2024-02-21T09:35:56;98776.03;;;9.38;61.61
59194;BME280;44967;48.598;15.650;2024-02-21T09:38:22;98771.47;;;9.48;61.69
59194;BME280;44967;48.598;15.650;2024-02-21T09:40:56;98766.19;;;9.46;60.32
59194;BME280;44967;48.598;15.650;2024-02-21T09:43:25;98770.66;;;9.43;60.72
59194;BME280;44967;48.598;15.650;2024-02-21T09:45:54;98771.41;;;9.51;61.37
59194;BME280;44967;48.598;15.650;2024-02-21T09:51:07;98768.25;;;9.77;59.29
59194;BME280;44967;48.598;15.650;2024-02-21T09:53:37;98760.47;;;9.71;58.77
59194;BME280;44967;48.598;15.650;2024-02-21T09:56:07;98768.44;;;9.68;58.62
59194;BME280;44967;48.598;15.650;2024-02-21T09:58:33;98752.31;;;9.81;58.38
59194;BME280;44967;48.598;15.650;2024-02-21T10:01:00;98753.03;;;9.91;58.56
59194;BME280;44967;48.598;15.650;2024-02-21T10:03:26;98758.78;;;10.08;58.24
59194;BME280;44967;48.598;15.650;2024-02-21T10:05:51;98759.66;;;10.10;58.17
59194;BME280;44967;48.598;15.650;2024-02-21T10:08:18;98759.53;;;10.16;57.77
59194;BME280;44967;48.598;15.650;2024-02-21T10:10:45;98756.94;;;10.13;56.76
59194;BME280;44967;48.598;15.650;2024-02-21T10:13:24;98759.44;;;10.22;58.29
59194;BME280;44967;48.598;15.650;2024-02-21T10:16:04;98755.81;;;10.26;56.32
59194;BME280;44967;48.598;15.650;2024-02-21T10:18:30;98752.31;;;10.26;56.94
59194;BME280;44967;48.598;15.650;2024-02-21T10:21:03;98747.25;;;10.14;56.82
59194;BME280;44967;48.598;15.650;2024-02-21T10:23:29;98746.44;;;10.10;56.28
59194;BME280;44967;48.598;15.650;2024-02-21T10:26:05;98748.22;;;10.10;56.74
59194;BME280;44967;48.598;15.650;2024-02-21T10:28:31;98754.38;;;10.09;57.40
59194;BME280;44967;48.598;15.650;2024-02-21T10:30:57;98749.97;;;10.11;57.81
59194;BME280;44967;48.598;15.650;2024-02-21T10:33:22;98754.19;;;10.19;57.19
59194;BME280;44967;48.598;15.650;2024-02-21T10:35:52;98751.63;;;10.16;56.18
59194;BME280;44967;48.598;15.650;2024-02-21T10:38:17;98750.84;;;10.11;55.46
59194;BME280;44967;48.598;15.650;2024-02-21T10:40:43;98743.09;;;10.02;55.76
59194;BME280;44967;48.598;15.650;2024-02-21T10:43:12;98740.28;;;10.10;55.59
59194;BME280;44967;48.598;15.650;2024-02-21T10:45:38;98733.25;;;10.09;56.01
59194;BME280;44967;48.598;15.650;2024-02-21T10:48:11;98735.69;;;10.19;56.85
59194;BME280;44967;48.598;15.650;2024-02-21T10:56:38;98720.16;;;10.04;56.04
59194;BME280;44967;48.598;15.650;2024-02-21T10:59:07;98714.56;;;10.19;56.70
59194;BME280;44967;48.598;15.650;2024-02-21T11:01:34;98723.72;;;10.03;56.41
59194;BME280;44967;48.598;15.650;2024-02-21T11:04:08;98709.75;;;9.97;56.04
59194;BME280;44967;48.598;15.650;2024-02-21T11:06:38;98707.25;;;9.90;56.08
59194;BME280;44967;48.598;15.650;2024-02-21T11:09:08;98696.72;;;9.90;56.24
59194;BME280;44967;48.598;15.650;2024-02-21T11:11:42;98697.34;;;10.02;57.11
59194;BME280;44967;48.598;15.650;2024-02-21T11:14:18;98693.56;;;10.13;56.93
59194;BME280;44967;48.598;15.650;2024-02-21T11:16:44;98690.69;;;10.24;55.66
59194;BME280;44967;48.598;15.650;2024-02-21T11:19:21;98675.53;;;10.33;55.78
59194;BME280;44967;48.598;15.650;2024-02-21T11:21:48;98662.41;;;10.30;56.54
59194;BME280;44967;48.598;15.650;2024-02-21T11:24:29;98659.59;;;10.36;55.28
59194;BME280;44967;48.598;15.650;2024-02-21T11:27:07;98657.19;;;10.63;55.59
59194;BME280;44967;48.598;15.650;2024-02-21T11:29:32;98645.31;;;10.79;54.89
59194;BME280;44967;48.598;15.650;2024-02-21T11:32:02;98643.88;;;11.01;54.95
59194;BME280;44967;48.598;15.650;2024-02-21T11:34:28;98639.72;;;10.91;52.84
59194;BME280;44967;48.598;15.650;2024-02-21T11:36:53;98636.25;;;10.89;53.29
59194;BME280;44967;48.598;15.650;2024-02-21T11:39:24;98628.59;;;11.11;53.19
59194;BME280;44967;48.598;15.650;2024-02-21T11:42:06;98635.38;;;11.21;53.09
59194;BME280;44967;48.598;15.650;2024-02-21T11:44:34;98628.88;;;11.02;52.53
59194;BME280;44967;48.598;15.650;2024-02-21T11:47:01;98631.44;;;11.03;52.96
59194;BME280;44967;48.598;15.650;2024-02-21T11:49:30;98620.31;;;10.91;52.82
59194;BME280;44967;48.598;15.650;2024-02-21T11:52:02;98616.44;;;11.05;53.37
59194;BME280;44967;48.598;15.650;2024-02-21T11:54:31;98604.84;;;11.09;53.41
59194;BME280;44967;48.598;15.650;2024-02-21T11:56:57;98609.38;;;11.06;53.27
59194;BME280;44967;48.598;15.650;2024-02-21T11:59:22;98606.75;;;11.04;52.03
59194;BME280;44967;48.598;15.650;2024-02-21T12:01:48;98602.94;;;11.14;52.35
59194;BME280;44967;48.598;15.650;2024-02-21T12:04:18;98600.63;;;11.02;52.21
59194;BME280;44967;48.598;15.650;2024-02-21T12:06:45;98603.09;;;11.08;52.61
59194;BME280;44967;48.598;15.650;2024-02-21T12:09:15;98604.00;;;11.07;52.26
59194;BME280;44967;48.598;15.650;2024-02-21T12:11:42;98604.13;;;11.03;51.65
59194;BME280;44967;48.598;15.650;2024-02-21T12:14:09;98603.09;;;11.08;51.94
59194;BME280;44967;48.598;15.650;2024-02-21T12:16:35;98599.91;;;10.97;51.50
59194;BME280;44967;48.598;15.650;2024-02-21T12:19:04;98601.38;;;11.07;52.91
59194;BME280;44967;48.598;15.650;2024-02-21T12:21:31;98591.34;;;11.18;52.36
59194;BME280;44967;48.598;15.650;2024-02-21T12:24:14;98593.09;;;11.19;52.01
59194;BME280;44967;48.598;15.650;2024-02-21T12:26:40;98589.88;;;11.08;52.12
59194;BME280;44967;48.598;15.650;2024-02-21T12:29:07;98584.84;;;10.99;53.06
59194;BME280;44967;48.598;15.650;2024-02-21T12:31:37;98584.56;;;11.10;52.60
59194;BME280;44967;48.598;15.650;2024-02-21T12:34:04;98581.59;;;11.20;52.40
59194;BME280;44967;48.598;15.650;2024-02-21T12:36:31;98584.13;;;11.25;52.80
59194;BME280;44967;48.598;15.650;2024-02-21T12:38:58;98578.97;;;11.20;52.57
59194;BME280;44967;48.598;15.650;2024-02-21T12:41:24;98574.00;;;11.10;52.04
59194;BME280;44967;48.598;15.650;2024-02-21T12:43:53;98564.78;;;11.23;51.82
59194;BME280;44967;48.598;15.650;2024-02-21T12:46:19;98563.31;;;11.13;52.86
59194;BME280;44967;48.598;15.650;2024-02-21T12:48:45;98549.88;;;11.20;52.85
59194;BME280;44967;48.598;15.650;2024-02-21T12:51:11;98540.19;;;11.19;52.20
59194;BME280;44967;48.598;15.650;2024-02-21T12:53:36;98533.63;;;11.32;52.77
59194;BME280;44967;48.598;15.650;2024-02-21T12:56:02;98527.16;;;11.43;52.52
59194;BME280;44967;48.598;15.650;2024-02-21T12:58:30;98522.78;;;11.42;51.81
59194;BME280;44967;48.598;15.650;2024-02-21T13:00:57;98524.34;;;11.49;52.14
59194;BME280;44967;48.598;15.650;2024-02-21T13:03:22;98528.53;;;11.56;51.80
59194;BME280;44967;48.598;15.650;2024-02-21T13:05:48;98513.03;;;11.42;52.12
59194;BME280;44967;48.598;15.650;2024-02-21T13:08:14;98513.91;;;11.43;51.57